Terminal Aerodrome Forecast
Issued by NWS Grand Forks, ND

Home | Current Version | Previous Version | Text Only | Print | Product List | Glossary Off
Versions: 1 2 3 4 5 6 7 8 9 10 11 12 13 14 15 16 17 18 19 20 21

000
FTUS43 KFGF 282300 AAA
TAFGFK
TAF AMD
KGFK 282337Z 2900/2924 17008KT P6SM OVC035
      TEMPO 2900/2904 BKN015
     FM290400 18007KT P6SM BKN015
     FM291100 19004KT 5SM BR OVC009
     FM291400 21003KT P6SM BKN015
     FM291600 34005KT P6SM OVC030=

USA.gov is the U.S. government's official web portal to all federal, state and local government web resources and services.